Metar Cercanos

 

LEPA - Palma De Mallorc, Spain
Distance from station: ONO 38km
Actualización: 23/04/2018 22:30
Despejado
Despejado
 Viento del ENE
Viento: ENE 15 km/h
Temperatura: 18°C
Rocío: 12°C
Humedad: 68%
Barómetro: 1019 hPa
Resumen: Despejado
Visibility: greater than 10 km
2018/04/23 20:30 LEPA 232030Z 07008KT CAVOK 18/12 Q1019 NOSIG
LEMH - Mahon/Menorca Is, Spain
Distance from station: ENE 105km
Actualización: 23/04/2018 22:30
Despejado
Despejado
 Viento del NE
Viento: NE 19 km/h
Temperatura: 16°C
Rocío: 14°C
Humedad: 88%
Barómetro: 1020 hPa
Resumen: Despejado
Visibility: greater than 10 km
2018/04/23 20:30 LEMH 232030Z 04010KT CAVOK 16/14 Q1020
 
LEIB - Ibiza/Es Codola, Spain
Distance from station: OSO 165km
Actualización: 23/04/2018 22:30
Despejado
Despejado
 Viento del NE
Viento: NE 20 km/h
Temperatura: 18°C
Rocío: 10°C
Humedad: 60%
Barómetro: 1017 hPa
Resumen: Despejado
Visibility: greater than 10 km
2018/04/23 20:30 LEIB 232030Z 04011KT CAVOK 18/10 Q1017 NOSIG
LEBL - Barcelona Airpor, Spain
Distance from station: NNO 225km
Actualización: 23/04/2018 22:30
Despejado
Despejado
 Viento del ENE
Viento: ENE 11 km/h
Temperatura: 17°C
Rocío: 14°C
Humedad: 83%
Barómetro: 1019 hPa
Resumen: Despejado
Visibility: greater than 10 km
2018/04/23 20:30 LEBL 232030Z 06006KT 010V080 CAVOK 17/14 Q1019 NOSIG
 
LEVC - Valencia (civ/Mi, Spain
Distance from station: NO 188km
Actualización: 23/04/2018 22:30
Despejado
Despejado
 Viento del varies
Viento: varies 2 km/h
Temperatura: 20°C
Rocío: 9°C
Humedad: 49%
Barómetro: 1019 hPa
Resumen: Despejado
Visibility: greater than 10 km
2018/04/23 20:30 LEVC 232030Z VRB01KT CAVOK 20/09 Q1019 NOSIG
LEGE - Gerona/Costa Bra, Spain
Distance from station: N 276km
Actualización: 23/04/2018 22:30
Despejado
Despejado
 Viento del O
Viento: O 4 km/h
Temperatura: 14°C
Rocío: 12°C
Humedad: 88%
Barómetro: 1020 hPa
Resumen: Despejado
Visibility: greater than 10 km
2018/04/23 20:30 LEGE 232030Z 27002KT CAVOK 14/12 Q1020
 
LEAL - Alicante/El Alte, Spain
Distance from station: OSO 344km
Actualización: 23/04/2018 22:30
Few Clouds
Few Clouds
 Viento del ENE
Viento: ENE 20 km/h
Temperatura: 20°C
Rocío: 10°C
Humedad: 53%
Barómetro: 1016 hPa
Clouds: Few Clouds
Visibility: 10 km
Cloud details: Few Clouds 1067 m
2018/04/23 20:30 LEAL 232030Z 07011KT 9999 FEW035 20/10 Q1016 NOSIG
LEAM - Almeria Airport, Spain
Distance from station: SSO 56km
Actualización: 23/04/2018 22:30
Nearby thunderstorm, Few clouds
Nearby thunderstorm, Few clouds
 Viento del S
Viento: S 33 km/h
Temperatura: 18°C
Rocío: 14°C
Humedad: 78%
Barómetro: 1014 hPa
Resumen: Nearby Thunderstorm
Clouds: Few Clouds
Visibility: 10 km
Cloud details: Few Clouds 2438 m
2018/04/23 20:30 LEAM 232030Z 19018KT 170V230 9999 VCTS FEW080CB 18/14 Q1014
 
LEZG - Zaragoza (mil/Ci, Spain
Distance from station: NO 431km
Actualización: 23/04/2018 22:30
Despejado
Despejado
 Viento del SO
Viento: SO 7 km/h
Temperatura: 14°C
Rocío: 13°C
Humedad: 94%
Barómetro: 1020 hPa
Resumen: Despejado
Visibility: greater than 10 km
2018/04/23 20:30 LEZG 232030Z 22004KT CAVOK 14/13 Q1020
LEMD - Madrid/Barajas, Spain
Distance from station: ONO 234km
Actualización: 23/04/2018 22:30
Despejado
Despejado
 Viento del ENE
Viento: ENE 9 km/h
Temperatura: 19°C
Rocío: 11°C
Humedad: 60%
Barómetro: 1018 hPa
Resumen: Despejado
Visibility: greater than 10 km
2018/04/23 20:30 LEMD 232030Z 06005KT 030V100 CAVOK 19/11 Q1018 NOSIG
 
LEGR - Granada Airport, Spain
Distance from station: OSO 62km
Actualización: 23/04/2018 22:30
Few Clouds
Few Clouds
 Viento del E
Viento: E 20 km/h
Temperatura: 22°C
Rocío: 5°C
Humedad: 33%
Barómetro: 1013 hPa
Clouds: Few Clouds
Visibility: 10 km
Cloud details: Few Clouds 1981 m
2018/04/23 20:30 LEGR 232030Z 09011KT 030V120 9999 FEW065TCU 22/05 Q1013
LEMG - Malaga (civ/Mil), Spain
Distance from station: OSO 227km
Actualización: 23/04/2018 22:30
Parcialmente nuboso
Parcialmente nuboso
 Viento del O
Viento: O 7 km/h
Temperatura: 16°C
Rocío: 15°C
Humedad: 94%
Barómetro: 1012 hPa
Clouds: Parcialmente nuboso
Visibility: 9 km
Cloud details: Few Clouds 762 m
Parcialmente nuboso 2438 m
2018/04/23 20:30 LEMG 232030Z 28004KT 9000 FEW025 SCT080 16/15 Q1012 NOSIG
 
LEZL - Sevilla (civ/Mil, Spain
Distance from station: S 318km
Actualización: 23/04/2018 22:30
Few Clouds
Few Clouds
 Viento del S
Viento: S 13 km/h
Temperatura: 20°C
Rocío: 15°C
Humedad: 73%
Barómetro: 1012 hPa
Clouds: Few Clouds
Visibility: 10 km
Cloud details: Few Clouds 1219 m
2018/04/23 20:30 LEZL 232030Z 18007KT 150V230 9999 FEW040CB 20/15 Q1012 TEMPO 4000 TSRA FEW030CB
LEVT - Vitoria, Spain
Distance from station: NO 226km
Actualización: 23/04/2018 22:30
Cubierto
Cubierto
 Viento del NO
Viento: NO 6 km/h
Temperatura: 14°C
Rocío: 13°C
Humedad: 94%
Barómetro: 1022 hPa
Clouds: Cubierto
Visibility: 10 km
Cloud details: Muy nuboso 274 m
Cubierto 427 m
2018/04/23 20:30 LEVT 232030Z 32003KT 290V350 9999 BKN009 OVC014 14/13 Q1022
 
LEBB - Bilbao/Sondica, Spain
Distance from station: NNO 235km
Actualización: 23/04/2018 22:30
Muy nuboso
Muy nuboso
 Viento del varies
Viento: varies 2 km/h
Temperatura: 15°C
Rocío: 14°C
Humedad: 94%
Barómetro: 1022 hPa
Clouds: Muy nuboso
Visibility: 9 km
Cloud details: Muy nuboso 427 m
2018/04/23 20:30 LEBB 232030Z VRB01KT 9000 BKN014 15/14 Q1022 TEMPO 4000 BR
LESO - San Sebastian/Fu, Spain
Distance from station: N 231km
Actualización: 23/04/2018 22:30
Cubierto
Cubierto
 Viento del N
Viento: N 6 km/h
Temperatura: 16°C
Rocío: 14°C
Humedad: 88%
Barómetro: 1022 hPa
Clouds: Cubierto
Visibility: 10 km
Cloud details: Cubierto 305 m
2018/04/23 20:30 LESO 232030Z AUTO 01003KT 310V050 9999 OVC010/// 16/14 Q1022
 
LEVD - Valladolid(Mil/C, Spain
Distance from station: ONO 239km
Actualización: 23/04/2018 21:30
NOT Current
Despejado
Despejado
 Viento del NE
Viento: NE 15 km/h
Temperatura: 16°C
Rocío: 11°C
Humedad: 72%
Barómetro: 1018 hPa
Resumen: Despejado
Visibility: greater than 10 km
2018/04/23 19:30 LEVD 231930Z 04008KT CAVOK 16/11 Q1018
LESA - Salamanca (civ/M, Spain
Distance from station: ONO 349km
Actualización: 23/04/2018 22:30
Despejado
Despejado
 Viento del NE
Viento: NE 9 km/h
Temperatura: 16°C
Rocío: 12°C
Humedad: 77%
Barómetro: 1018 hPa
Resumen: Despejado
Visibility: greater than 10 km
2018/04/23 20:30 LESA 232030Z 04005KT CAVOK 16/12 Q1018
 
LEXJ - Santander/Paraya, Spain
Distance from station: NNO 247km
Actualización: 23/04/2018 22:30
Muy nuboso
Muy nuboso
 Viento del ENE
Viento: ENE 7 km/h
Temperatura: 15°C
Rocío: 15°C
Humedad: 100%
Barómetro: 1022 hPa
Clouds: Muy nuboso
Visibility: 8 km
Cloud details: Few Clouds 457 m
Muy nuboso 610 m
2018/04/23 20:30 LEXJ 232030Z 06004KT 030V100 8000 FEW015 BKN020 15/15 Q1022
LEAS - Asturias/Aviles, Spain
Distance from station: NO 214km
Actualización: 23/04/2018 22:30
Muy nuboso
Muy nuboso
 Viento del E
Viento: E 7 km/h
Temperatura: 13°C
Rocío: 12°C
Humedad: 94%
Barómetro: 1021 hPa
Clouds: Muy nuboso
Visibility: 8 km
Cloud details: Parcialmente nuboso 213 m
Muy nuboso 274 m
2018/04/23 20:30 LEAS 232030Z 10004KT 070V130 8000 SCT007 BKN009 13/12 Q1021 NOSIG
 
LECO - La Coruna/Alvedr, Spain
Distance from station: ONO 222km
Actualización: 23/04/2018 22:30
Despejado
Despejado
 Viento del varies
Viento: varies 2 km/h
Temperatura: 13°C
Rocío: 11°C
Humedad: 88%
Barómetro: 1019 hPa
Resumen: Despejado
Visibility: greater than 10 km
2018/04/23 20:30 LECO 232030Z VRB01KT CAVOK 13/11 Q1019 NOSIG
LEVX - Vigo/Peinador, Spain
Distance from station: O 214km
Actualización: 23/04/2018 22:30
Despejado
Despejado
 Viento del NNE
Viento: NNE 9 km/h
Temperatura: 19°C
Rocío: 15°C
Humedad: 78%
Barómetro: 1017 hPa
Resumen: Despejado
Visibility: greater than 10 km
2018/04/23 20:30 LEVX 232030Z 02005KT 350V050 CAVOK 19/15 Q1017 NOSIG